Time;durP1;ratioP1;P1;durP2;ratioP2;P2;SDS_P1;SDS_P2;PMS_P1;PMS_P2;Temp;Humidity;BMP_temperature;BMP_pressure;BME280_temperature;BME280_humidity;BME280_pressure;Samples;Min_cycle;Max_cycle;Signal;HPM_P1;HPM_P2
2022/08/06 00:02:29;;;;;;;9.40;5.10;;;26.40;86.00;;;;;;6189446;23;20684;-94
2022/08/06 00:04:57;;;;;;;5.90;4.93;;;26.40;86.20;;;;;;6189062;23;20213;-95
2022/08/06 00:07:23;;;;;;;10.57;5.73;;;26.30;86.30;;;;;;6166519;23;20404;-96
2022/08/06 00:09:49;;;;;;;7.17;5.40;;;26.30;86.50;;;;;;6167767;23;20424;-94
2022/08/06 00:12:15;;;;;;;5.50;4.90;;;26.30;86.60;;;;;;6197301;23;20369;-95
2022/08/06 00:14:41;;;;;;;7.80;5.60;;;26.20;86.60;;;;;;6163134;23;20183;-94
2022/08/06 00:17:06;;;;;;;5.73;5.13;;;26.20;86.80;;;;;;6162934;23;20154;-94
2022/08/06 00:19:32;;;;;;;5.97;5.20;;;26.20;87.00;;;;;;6164343;23;20189;-94
2022/08/06 00:21:58;;;;;;;7.43;5.33;;;26.10;87.00;;;;;;6162352;23;20170;-94
2022/08/06 00:24:24;;;;;;;6.50;5.10;;;26.10;87.00;;;;;;6164830;23;20252;-96
2022/08/06 00:26:49;;;;;;;6.63;5.10;;;26.00;87.30;;;;;;6163117;23;20396;-94
2022/08/06 00:29:15;;;;;;;6.20;5.23;;;26.00;87.40;;;;;;6165877;23;20234;-93
2022/08/06 00:31:41;;;;;;;5.97;4.60;;;26.00;87.50;;;;;;6164661;23;20154;-94
2022/08/06 00:34:08;;;;;;;9.57;5.33;;;26.00;87.60;;;;;;6162854;23;20244;-93
2022/08/06 00:36:34;;;;;;;7.07;5.17;;;26.00;87.60;;;;;;6166023;23;20559;-95
2022/08/06 00:39:04;;;;;;;6.10;5.50;;;25.90;87.40;;;;;;6162685;23;20408;-95
2022/08/06 00:41:31;;;;;;;5.57;5.03;;;25.90;87.60;;;;;;6162894;23;20411;-95
2022/08/06 00:43:58;;;;;;;8.83;4.63;;;25.80;87.70;;;;;;6162902;23;20391;-95
2022/08/06 00:46:24;;;;;;;5.90;4.87;;;25.80;87.80;;;;;;6162415;23;20415;-95
2022/08/06 00:48:51;;;;;;;7.30;4.70;;;25.80;88.00;;;;;;6165472;23;20542;-94
2022/08/06 00:51:16;;;;;;;5.10;4.50;;;25.80;88.10;;;;;;6162242;23;20446;-94
2022/08/06 00:53:42;;;;;;;7.23;5.07;;;25.70;88.20;;;;;;6192779;23;20383;-92
2022/08/06 00:56:08;;;;;;;10.53;4.90;;;25.70;88.70;;;;;;6163298;23;20181;-93
2022/08/06 00:58:34;;;;;;;6.83;5.40;;;25.60;88.80;;;;;;6163979;23;20613;-94
2022/08/06 01:00:59;;;;;;;11.90;5.03;;;25.60;89.00;;;;;;6188143;23;20579;-93
2022/08/06 01:03:25;;;;;;;5.40;4.83;;;25.60;89.00;;;;;;6162483;23;20395;-93
2022/08/06 01:05:51;;;;;;;6.03;5.33;;;25.60;89.10;;;;;;6173304;23;20228;-94
2022/08/06 01:08:16;;;;;;;8.57;5.40;;;25.50;89.10;;;;;;6196830;23;20210;-92
2022/08/06 01:10:42;;;;;;;10.57;6.17;;;25.50;89.10;;;;;;6188732;23;20252;-94
2022/08/06 01:13:08;;;;;;;6.70;5.13;;;25.50;89.60;;;;;;6187752;23;20612;-94
2022/08/06 01:15:37;;;;;;;7.63;6.20;;;25.40;88.60;;;;;;6189106;23;20258;-93
2022/08/06 01:18:11;;;;;;;5.93;4.90;;;25.40;88.90;;;;;;6194768;23;20411;-93
2022/08/06 01:21:01;;;;;;;7.57;5.03;;;25.40;88.70;;;;;;6188852;23;20431;-94
2022/08/06 01:23:33;;;;;;;6.87;5.00;;;25.40;88.50;;;;;;6190807;23;20399;-94
2022/08/06 01:26:36;;;;;;;13.00;5.50;;;25.40;88.30;;;;;;6190515;23;20422;-93
2022/08/06 01:29:26;;;;;;;8.57;4.70;;;25.40;88.30;;;;;;6186903;23;20451;-94
2022/08/06 01:32:09;;;;;;;5.73;5.23;;;25.30;88.10;;;;;;6186697;23;20482;-93
2022/08/06 01:34:42;;;;;;;6.13;5.63;;;25.30;88.10;;;;;;6186843;23;20430;-94
2022/08/06 01:37:11;;;;;;;12.00;5.10;;;25.30;88.10;;;;;;6192576;23;20443;-93
2022/08/06 01:39:39;;;;;;;8.27;5.60;;;25.30;88.00;;;;;;6189831;23;20991;-94
2022/08/06 01:42:07;;;;;;;5.47;4.93;;;25.30;88.00;;;;;;6187241;23;20380;-93
2022/08/06 01:44:36;;;;;;;7.63;5.03;;;25.30;88.10;;;;;;6188753;23;20415;-95
2022/08/06 01:47:07;;;;;;;7.23;4.87;;;25.20;88.10;;;;;;6189058;23;20747;-93
2022/08/06 01:49:35;;;;;;;7.07;5.40;;;25.20;88.50;;;;;;6187257;23;20542;-94
2022/08/06 01:52:04;;;;;;;8.57;5.97;;;25.20;88.60;;;;;;6191774;23;20383;-93
2022/08/06 01:54:31;;;;;;;7.00;5.00;;;25.20;88.80;;;;;;6191107;23;20422;-93
2022/08/06 01:57:00;;;;;;;6.47;5.70;;;25.20;88.70;;;;;;6186590;23;20388;-93
2022/08/06 01:59:33;;;;;;;7.40;5.10;;;25.20;88.50;;;;;;6187406;23;20562;-94
2022/08/06 02:02:02;;;;;;;5.50;5.00;;;25.20;88.80;;;;;;6187536;23;20381;-93
2022/08/06 02:04:32;;;;;;;8.03;5.57;;;25.20;88.90;;;;;;6187281;23;20429;-95
2022/08/06 02:07:01;;;;;;;5.53;4.97;;;25.20;88.80;;;;;;6188728;23;20418;-92
2022/08/06 02:09:29;;;;;;;5.53;4.70;;;25.10;88.90;;;;;;6186178;23;20454;-94
2022/08/06 02:12:11;;;;;;;8.53;4.90;;;25.10;89.00;;;;;;6186790;23;20394;-93
2022/08/06 02:14:54;;;;;;;4.90;4.50;;;25.00;89.10;;;;;;6187067;23;20412;-93
2022/08/06 02:17:24;;;;;;;10.63;5.07;;;25.00;89.50;;;;;;6189351;23;20423;-93
2022/08/06 02:19:52;;;;;;;5.90;5.27;;;25.00;89.90;;;;;;6192935;23;20759;-94
2022/08/06 02:22:19;;;;;;;5.93;5.23;;;24.90;89.70;;;;;;6186368;23;20713;-94
2022/08/06 02:24:46;;;;;;;6.30;5.00;;;24.90;89.80;;;;;;6186046;23;20458;-93
2022/08/06 02:27:14;;;;;;;6.23;5.00;;;24.90;89.90;;;;;;6187089;23;20386;-94
2022/08/06 02:29:42;;;;;;;5.40;4.90;;;24.90;90.00;;;;;;6191702;23;20459;-94
2022/08/06 02:32:09;;;;;;;6.30;5.10;;;24.80;90.00;;;;;;6189055;23;20433;-91
2022/08/06 02:34:35;;;;;;;5.97;5.47;;;24.80;90.00;;;;;;6188933;23;20522;-93
2022/08/06 02:37:17;;;;;;;6.10;5.40;;;24.90;90.20;;;;;;6188031;23;20388;-92
2022/08/06 02:39:52;;;;;;;7.80;6.23;;;24.80;90.10;;;;;;6187348;23;20469;-93
2022/08/06 02:42:24;;;;;;;5.40;4.90;;;24.80;90.20;;;;;;6187557;23;20390;-94
2022/08/06 02:45:02;;;;;;;8.50;5.53;;;24.70;90.20;;;;;;6190242;23;20474;-93
2022/08/06 02:47:53;;;;;;;7.13;5.20;;;24.70;90.40;;;;;;6187730;23;20375;-93
2022/08/06 02:50:23;;;;;;;8.57;5.40;;;24.70;90.60;;;;;;6192043;23;20427;-92
2022/08/06 02:52:55;;;;;;;7.90;5.50;;;24.70;90.60;;;;;;6194244;23;20748;-93
2022/08/06 02:55:25;;;;;;;8.40;6.30;;;24.60;90.40;;;;;;6191393;23;20469;-93
2022/08/06 02:57:57;;;;;;;6.40;5.00;;;24.60;90.30;;;;;;6192326;23;20392;-94
2022/08/06 03:00:25;;;;;;;6.70;6.10;;;24.60;90.20;;;;;;6191757;23;20414;-94
2022/08/06 03:02:57;;;;;;;10.10;5.37;;;24.60;90.30;;;;;;6187866;23;20390;-93
2022/08/06 03:05:25;;;;;;;11.13;5.90;;;24.60;90.40;;;;;;6191213;23;20449;-89
2022/08/06 03:07:53;;;;;;;6.20;5.60;;;24.60;90.40;;;;;;6189057;23;20478;-93
2022/08/06 03:10:21;;;;;;;6.60;5.80;;;24.60;90.40;;;;;;6188655;23;20450;-93
2022/08/06 03:12:49;;;;;;;9.33;6.10;;;24.60;90.50;;;;;;6188302;23;20406;-92
2022/08/06 03:15:18;;;;;;;7.03;5.03;;;24.60;90.70;;;;;;6191914;23;20422;-93
2022/08/06 03:17:45;;;;;;;8.30;6.47;;;24.50;90.70;;;;;;6193654;23;20370;-94
2022/08/06 03:20:14;;;;;;;7.77;6.20;;;24.50;90.70;;;;;;6188341;23;20421;-94
2022/08/06 03:22:41;;;;;;;7.13;6.20;;;24.50;90.80;;;;;;6188176;23;20385;-95
2022/08/06 03:25:09;;;;;;;7.63;5.90;;;24.50;90.80;;;;;;6204461;23;20418;-94
2022/08/06 03:27:37;;;;;;;10.73;6.30;;;24.40;90.80;;;;;;6197759;23;20386;-93
2022/08/06 03:30:04;;;;;;;9.83;6.20;;;24.40;90.70;;;;;;6188159;23;20434;-94
2022/08/06 03:32:31;;;;;;;9.40;6.93;;;24.40;90.60;;;;;;6191162;23;20410;-94
2022/08/06 03:34:58;;;;;;;7.20;6.50;;;24.40;90.60;;;;;;6187907;23;20428;-93
2022/08/06 03:37:24;;;;;;;25.13;7.00;;;24.40;90.70;;;;;;6187482;23;20387;-93
2022/08/06 03:39:51;;;;;;;18.93;6.90;;;24.40;90.80;;;;;;6190931;23;20871;-93
2022/08/06 03:42:17;;;;;;;9.17;6.43;;;24.40;90.80;;;;;;6187882;23;20866;-94
2022/08/06 03:44:43;;;;;;;11.20;8.20;;;24.40;90.80;;;;;;6189943;23;20412;-93
2022/08/06 03:47:32;;;;;;;9.27;6.23;;;24.40;90.80;;;;;;6191444;23;20691;-94
2022/08/06 03:50:19;;;;;;;12.50;7.00;;;24.30;90.90;;;;;;6187769;23;20197;-93
2022/08/06 03:52:55;;;;;;;16.00;7.57;;;24.30;91.00;;;;;;6187348;23;20406;-91
2022/08/06 03:55:24;;;;;;;14.60;7.47;;;24.30;91.00;;;;;;6187222;23;20429;-94
2022/08/06 03:57:54;;;;;;;24.40;8.00;;;24.30;91.10;;;;;;6188384;23;20386;-94
2022/08/06 04:00:24;;;;;;;18.57;7.70;;;24.30;91.40;;;;;;6187789;23;20421;-93
2022/08/06 04:02:54;;;;;;;17.37;7.20;;;24.20;91.90;;;;;;6189889;23;20381;-94
2022/08/06 04:05:25;;;;;;;9.30;6.67;;;24.20;91.70;;;;;;6192224;23;20754;-93
2022/08/06 04:07:55;;;;;;;10.77;7.80;;;24.20;91.60;;;;;;6207902;23;20424;-93
2022/08/06 04:10:23;;;;;;;8.00;6.47;;;24.30;91.40;;;;;;6203786;23;20409;-94
2022/08/06 04:12:49;;;;;;;8.30;6.47;;;24.20;91.30;;;;;;6189455;23;20392;-94
2022/08/06 04:15:16;;;;;;;8.60;7.10;;;24.30;91.30;;;;;;6188771;23;20802;-94
2022/08/06 04:17:44;;;;;;;8.80;6.90;;;24.20;91.00;;;;;;6188509;23;20877;-92
2022/08/06 04:20:16;;;;;;;8.87;6.43;;;24.20;91.10;;;;;;6188969;23;20429;-94
2022/08/06 04:22:43;;;;;;;5.97;5.37;;;24.20;91.20;;;;;;6189385;23;20377;-93
2022/08/06 04:25:10;;;;;;;6.70;6.00;;;24.20;91.30;;;;;;6187344;23;20496;-94
2022/08/06 04:27:38;;;;;;;8.33;6.60;;;24.20;91.40;;;;;;6199075;23;20382;-94
2022/08/06 04:30:06;;;;;;;8.70;5.70;;;24.20;91.50;;;;;;6192054;23;20727;-94
2022/08/06 04:32:33;;;;;;;6.60;5.30;;;24.20;91.60;;;;;;6189688;23;20432;-95
2022/08/06 04:35:07;;;;;;;15.17;6.13;;;24.30;91.60;;;;;;6191433;23;20425;-94
2022/08/06 04:37:34;;;;;;;9.53;5.73;;;24.30;91.60;;;;;;6191184;23;20468;-92
2022/08/06 04:40:00;;;;;;;15.03;6.63;;;24.30;91.40;;;;;;6194749;23;20502;-94
2022/08/06 04:42:26;;;;;;;13.23;10.20;;;24.40;91.30;;;;;;6187309;23;20421;-94
2022/08/06 04:44:52;;;;;;;8.37;6.70;;;24.40;91.40;;;;;;6185313;23;20513;-93
2022/08/06 04:47:19;;;;;;;9.03;5.83;;;24.40;91.60;;;;;;6187593;23;20437;-93
2022/08/06 04:49:46;;;;;;;9.90;5.33;;;24.40;91.50;;;;;;6185111;23;20450;-94
2022/08/06 04:52:23;;;;;;;16.50;6.33;;;24.40;91.50;;;;;;6187941;23;20453;-94
2022/08/06 04:54:48;;;;;;;7.53;5.67;;;24.50;91.50;;;;;;6187380;23;20452;-94
2022/08/06 04:57:14;;;;;;;15.43;5.93;;;24.50;91.70;;;;;;6187452;23;20397;-93
2022/08/06 04:59:40;;;;;;;11.20;6.50;;;24.50;91.60;;;;;;6188950;23;20191;-93
2022/08/06 05:02:06;;;;;;;7.27;6.13;;;24.50;91.80;;;;;;6187253;23;20156;-94
2022/08/06 05:04:33;;;;;;;9.53;6.40;;;24.60;91.80;;;;;;6188391;23;20180;-93
2022/08/06 05:07:27;;;;;;;9.20;5.50;;;24.60;91.50;;;;;;6189232;23;20191;-94
2022/08/06 05:09:53;;;;;;;7.90;5.97;;;24.60;91.40;;;;;;6190019;23;20927;-94
2022/08/06 05:12:29;;;;;;;12.03;6.00;;;24.70;91.20;;;;;;6196404;23;20405;-93
2022/08/06 05:15:02;;;;;;;17.53;5.63;;;24.70;91.10;;;;;;6192745;23;20459;-93
2022/08/06 05:17:36;;;;;;;7.50;5.03;;;24.80;91.10;;;;;;6192513;23;20418;-93
2022/08/06 05:20:15;;;;;;;5.27;4.80;;;24.80;90.90;;;;;;6192577;23;20426;-93
2022/08/06 05:22:43;;;;;;;7.90;4.93;;;24.90;90.90;;;;;;6197028;23;20381;-93
2022/08/06 05:25:09;;;;;;;7.17;4.83;;;25.00;90.70;;;;;;6202056;23;20499;-94
2022/08/06 05:27:35;;;;;;;5.27;4.70;;;25.10;90.50;;;;;;6201933;23;20818;-94
2022/08/06 05:30:06;;;;;;;6.17;4.80;;;25.20;90.40;;;;;;6186634;23;20419;-94
2022/08/06 05:32:39;;;;;;;5.33;4.83;;;25.20;90.30;;;;;;6187471;23;20411;-93
2022/08/06 05:35:05;;;;;;;6.20;4.93;;;25.30;90.00;;;;;;6185149;23;20429;-94
2022/08/06 05:37:31;;;;;;;5.00;4.60;;;25.40;89.90;;;;;;6187262;23;20490;-92
2022/08/06 05:39:57;;;;;;;4.97;4.40;;;25.60;89.50;;;;;;6197668;23;20493;-92
2022/08/06 05:42:22;;;;;;;7.33;4.40;;;25.60;89.10;;;;;;6191837;23;20185;-93
2022/08/06 05:44:49;;;;;;;5.57;4.70;;;25.70;88.60;;;;;;6201217;23;20190;-93
2022/08/06 05:47:19;;;;;;;9.90;4.50;;;25.80;88.20;;;;;;6193960;23;20170;-93
2022/08/06 05:49:49;;;;;;;5.00;4.50;;;25.90;88.10;;;;;;6188750;23;20534;-94
2022/08/06 05:52:21;;;;;;;4.87;4.10;;;26.00;88.30;;;;;;6188932;23;20404;-93
2022/08/06 05:54:54;;;;;;;6.60;4.60;;;26.10;88.10;;;;;;6189898;23;20956;-93
2022/08/06 05:57:41;;;;;;;5.40;3.97;;;26.20;87.80;;;;;;6189750;23;20385;-95
2022/08/06 06:00:18;;;;;;;5.37;3.80;;;26.30;87.60;;;;;;6191746;23;20424;-91
2022/08/06 06:02:47;;;;;;;6.70;4.90;;;26.40;87.40;;;;;;6191258;23;20459;-89
2022/08/06 06:05:14;;;;;;;8.60;4.43;;;26.50;86.90;;;;;;6191972;23;20458;-92
2022/08/06 06:07:43;;;;;;;5.50;4.57;;;26.60;86.60;;;;;;6191396;23;20427;-96
2022/08/06 06:10:12;;;;;;;10.93;4.67;;;26.70;86.70;;;;;;6192473;23;20428;-95
2022/08/06 06:12:41;;;;;;;9.10;4.90;;;26.80;86.90;;;;;;6186834;23;20388;-93
2022/08/06 06:15:10;;;;;;;7.13;4.27;;;26.90;87.10;;;;;;6186592;23;20438;-94
2022/08/06 06:18:06;;;;;;;5.43;4.23;;;27.00;87.30;;;;;;6184169;23;20389;-96
2022/08/06 06:21:07;;;;;;;7.90;5.10;;;27.10;87.00;;;;;;6188154;23;20428;-95
2022/08/06 06:24:01;;;;;;;8.70;4.20;;;27.20;86.80;;;;;;6185687;23;20541;-92
2022/08/06 06:26:46;;;;;;;6.90;4.43;;;27.30;86.70;;;;;;6166993;23;20889;-96
2022/08/06 06:29:27;;;;;;;9.23;4.00;;;27.40;86.40;;;;;;6184412;23;20458;-90
2022/08/06 06:32:13;;;;;;;9.73;3.83;;;27.50;84.70;;;;;;6189550;23;20384;-93
2022/08/06 06:34:44;;;;;;;6.30;3.73;;;27.60;84.60;;;;;;6194402;23;20511;-90
2022/08/06 06:37:38;;;;;;;6.03;3.80;;;27.70;82.50;;;;;;6188509;23;20400;-95
2022/08/06 06:40:27;;;;;;;6.37;3.50;;;27.80;82.70;;;;;;6194562;23;20458;-94
2022/08/06 06:43:26;;;;;;;3.57;3.30;;;28.00;81.10;;;;;;6187141;23;20393;-96
2022/08/06 06:46:00;;;;;;;5.20;3.33;;;28.10;81.20;;;;;;6186098;23;20443;-93
2022/08/06 06:48:36;;;;;;;3.63;3.33;;;28.20;81.00;;;;;;6186311;23;20447;-96
2022/08/06 06:51:08;;;;;;;5.90;3.70;;;28.30;81.40;;;;;;6188335;23;20693;-92
2022/08/06 06:53:39;;;;;;;5.80;3.63;;;28.40;80.20;;;;;;6190242;23;20385;-93
2022/08/06 06:56:08;;;;;;;4.70;3.17;;;28.50;79.60;;;;;;6191382;23;20509;-94
2022/08/06 06:58:55;;;;;;;9.43;5.10;;;28.60;79.30;;;;;;6195201;23;20390;-93
2022/08/06 07:01:23;;;;;;;7.00;4.03;;;28.70;79.90;;;;;;6201887;23;20449;-92
2022/08/06 07:03:49;;;;;;;7.33;3.90;;;28.80;81.30;;;;;;6186990;23;20436;-94
2022/08/06 07:06:16;;;;;;;6.17;3.77;;;28.90;79.40;;;;;;6197345;23;20433;-93
2022/08/06 07:08:45;;;;;;;7.30;3.90;;;28.90;79.10;;;;;;6189806;23;20457;-93
2022/08/06 07:11:19;;;;;;;3.80;3.50;;;29.00;77.60;;;;;;6195076;23;20429;-94
2022/08/06 07:13:46;;;;;;;4.03;2.97;;;29.10;76.60;;;;;;6192556;23;20465;-94
2022/08/06 07:16:15;;;;;;;4.37;3.23;;;29.20;76.80;;;;;;6185679;23;20396;-94
2022/08/06 07:18:43;;;;;;;3.00;2.60;;;29.30;77.90;;;;;;6182704;23;20391;-94
2022/08/06 07:21:13;;;;;;;3.47;3.10;;;29.40;76.50;;;;;;6184732;23;20415;-95
2022/08/06 07:23:39;;;;;;;3.80;3.30;;;29.50;75.50;;;;;;6184815;23;20397;-95
2022/08/06 07:26:07;;;;;;;5.30;4.50;;;29.50;75.30;;;;;;6188159;23;20526;-96
2022/08/06 07:28:33;;;;;;;6.73;3.00;;;29.60;74.80;;;;;;6195874;23;20303;-94
2022/08/06 07:31:04;;;;;;;4.60;2.90;;;29.70;75.60;;;;;;6201079;23;20399;-96
2022/08/06 07:33:32;;;;;;;3.93;3.13;;;29.80;76.20;;;;;;6184884;23;20742;-95
2022/08/06 07:35:59;;;;;;;4.70;3.33;;;29.90;75.10;;;;;;6186544;23;20449;-94
2022/08/06 07:38:27;;;;;;;6.10;3.30;;;30.00;74.80;;;;;;6183852;23;20401;-95
2022/08/06 07:41:04;;;;;;;3.70;3.40;;;30.10;74.10;;;;;;6186351;23;20880;-94
2022/08/06 07:43:51;;;;;;;3.40;2.90;;;30.10;73.70;;;;;;6184256;23;20841;-94
2022/08/06 07:46:21;;;;;;;5.50;3.67;;;30.20;75.00;;;;;;6190453;23;20409;-94
2022/08/06 07:48:54;;;;;;;3.43;3.13;;;30.30;74.00;;;;;;6185214;23;20462;-95
2022/08/06 07:51:23;;;;;;;4.10;2.70;;;30.40;73.00;;;;;;6186247;23;20417;-95
2022/08/06 07:53:51;;;;;;;5.80;2.73;;;30.50;72.80;;;;;;6188984;23;20401;-94
2022/08/06 07:56:19;;;;;;;3.80;2.90;;;30.50;71.60;;;;;;6194945;23;20408;-95
2022/08/06 07:58:50;;;;;;;2.80;2.60;;;30.60;71.30;;;;;;6189629;23;20397;-96
2022/08/06 08:01:18;;;;;;;5.63;3.00;;;30.70;72.10;;;;;;6190735;23;20938;-96
2022/08/06 08:06:31;;;;;;;3.30;3.00;;;30.80;72.40;;;;;;6195257;23;20453;-96
2022/08/06 08:09:21;;;;;;;5.73;2.97;;;30.90;72.30;;;;;;6176672;23;20445;-95
2022/08/06 08:11:48;;;;;;;3.63;2.90;;;30.90;73.70;;;;;;6161566;23;20899;-96
2022/08/06 08:14:18;;;;;;;3.60;3.00;;;31.00;72.20;;;;;;6161841;23;20422;-94
2022/08/06 08:16:44;;;;;;;3.50;3.20;;;31.00;72.50;;;;;;6161738;23;20886;-94
2022/08/06 08:19:20;;;;;;;10.20;3.90;;;31.10;70.40;;;;;;6189471;23;20478;-93
2022/08/06 08:21:46;;;;;;;3.77;3.40;;;31.20;73.10;;;;;;6160321;23;20216;-94
2022/08/06 08:24:15;;;;;;;5.70;3.17;;;31.30;70.40;;;;;;6165559;23;20410;-96
2022/08/06 08:26:45;;;;;;;8.00;3.33;;;31.40;70.80;;;;;;6163903;23;20392;-95
2022/08/06 08:29:12;;;;;;;8.13;3.40;;;31.50;72.20;;;;;;6138969;23;20949;-96
2022/08/06 08:31:38;;;;;;;12.73;3.97;;;31.60;70.60;;;;;;6139357;23;20865;-93
2022/08/06 08:34:05;;;;;;;5.20;2.87;;;31.60;70.80;;;;;;6148518;23;20412;-95
2022/08/06 08:36:34;;;;;;;3.33;2.90;;;31.70;71.60;;;;;;6143252;23;20393;-93
2022/08/06 08:39:01;;;;;;;3.50;3.20;;;31.80;69.20;;;;;;6135500;23;20898;-96
2022/08/06 08:41:40;;;;;;;5.10;3.40;;;32.00;70.00;;;;;;6135639;23;20416;-94
2022/08/06 08:44:11;;;;;;;3.73;2.70;;;32.10;68.60;;;;;;6138298;23;20404;-95
2022/08/06 08:46:42;;;;;;;5.30;3.10;;;32.20;68.50;;;;;;6137118;23;20394;-96
2022/08/06 08:49:41;;;;;;;15.70;4.00;;;32.40;69.60;;;;;;6136117;23;20934;-95
2022/08/06 08:52:09;;;;;;;6.07;2.97;;;32.40;71.60;;;;;;6137245;23;20685;-94
2022/08/06 08:54:37;;;;;;;3.50;3.13;;;32.50;68.50;;;;;;6143120;23;20758;-95
2022/08/06 08:57:05;;;;;;;3.30;3.00;;;32.70;67.10;;;;;;6134165;23;20796;-94
2022/08/06 08:59:32;;;;;;;3.77;3.23;;;32.90;66.20;;;;;;6140823;23;20420;-94
2022/08/06 09:01:58;;;;;;;2.30;2.20;;;33.00;65.40;;;;;;6162918;23;20373;-95
2022/08/06 09:04:27;;;;;;;3.37;3.17;;;33.10;64.90;;;;;;6156757;23;20495;-94
2022/08/06 09:06:53;;;;;;;3.10;2.90;;;33.20;65.40;;;;;;6152939;23;20448;-93
2022/08/06 09:09:20;;;;;;;4.27;3.90;;;33.30;65.50;;;;;;6154861;23;20505;-93
2022/08/06 09:11:47;;;;;;;4.20;3.83;;;33.40;65.70;;;;;;6161066;23;20202;-93
2022/08/06 09:14:13;;;;;;;5.13;4.03;;;33.50;65.10;;;;;;6164449;23;20770;-96
2022/08/06 09:16:40;;;;;;;3.80;3.40;;;33.60;64.70;;;;;;6159002;23;20464;-96
2022/08/06 09:19:08;;;;;;;4.40;4.00;;;33.60;66.00;;;;;;6157872;23;20155;-92
2022/08/06 09:21:35;;;;;;;10.27;3.63;;;33.60;66.90;;;;;;6157500;23;20392;-92
2022/08/06 09:24:00;;;;;;;6.40;3.90;;;33.70;66.70;;;;;;6156295;23;20638;-96
2022/08/06 09:26:26;;;;;;;4.80;3.40;;;33.80;66.50;;;;;;6163421;23;20369;-92
2022/08/06 09:28:52;;;;;;;3.23;2.97;;;33.90;66.70;;;;;;6161143;23;20255;-96
2022/08/06 09:31:23;;;;;;;3.93;3.53;;;33.90;67.60;;;;;;6166440;23;20198;-95
2022/08/06 09:34:03;;;;;;;4.33;3.47;;;33.90;67.80;;;;;;6168888;23;20159;-96
2022/08/06 09:36:44;;;;;;;3.37;3.07;;;34.00;67.50;;;;;;6159141;23;20389;-95
2022/08/06 09:39:10;;;;;;;4.50;3.57;;;34.00;64.90;;;;;;6161255;23;20447;-96
2022/08/06 09:41:48;;;;;;;5.20;3.00;;;34.10;64.80;;;;;;6155766;23;20704;-93
2022/08/06 09:44:14;;;;;;;3.43;3.17;;;34.10;64.70;;;;;;6156837;23;20617;-91
2022/08/06 09:46:49;;;;;;;3.20;3.00;;;34.10;64.20;;;;;;6160114;23;20432;-94
2022/08/06 09:49:17;;;;;;;4.20;3.40;;;34.10;64.70;;;;;;6154753;23;20445;-91
2022/08/06 09:51:43;;;;;;;3.57;3.27;;;34.00;64.00;;;;;;6157760;23;20401;-95
2022/08/06 09:54:15;;;;;;;3.37;3.07;;;34.10;64.30;;;;;;6153581;23;20405;-91
2022/08/06 09:56:42;;;;;;;3.73;3.20;;;33.90;66.60;;;;;;6156680;23;20162;-94
2022/08/06 09:59:09;;;;;;;3.40;3.07;;;33.90;65.00;;;;;;6156455;23;20847;-92
2022/08/06 10:01:45;;;;;;;3.83;3.40;;;33.90;66.20;;;;;;6162924;23;20413;-88
2022/08/06 10:04:28;;;;;;;3.60;3.40;;;33.80;67.40;;;;;;6156559;23;20392;-96
2022/08/06 10:06:59;;;;;;;3.87;3.37;;;33.90;65.80;;;;;;6162373;23;20425;-92
2022/08/06 10:09:28;;;;;;;4.37;3.83;;;33.80;67.30;;;;;;6144444;23;20543;-93
2022/08/06 10:11:55;;;;;;;3.83;3.50;;;33.80;67.80;;;;;;6133869;23;20855;-92
2022/08/06 10:14:27;;;;;;;7.73;3.63;;;33.90;66.00;;;;;;6131255;23;20824;-91
2022/08/06 10:17:10;;;;;;;4.10;3.70;;;33.90;66.00;;;;;;6131603;23;20377;-90
2022/08/06 10:19:38;;;;;;;4.80;4.27;;;33.90;65.70;;;;;;6161198;23;20425;-93
2022/08/06 10:22:10;;;;;;;3.83;3.53;;;34.00;65.50;;;;;;6162649;23;20424;-90
2022/08/06 10:24:49;;;;;;;4.60;3.33;;;33.90;67.50;;;;;;6135858;23;20428;-94
2022/08/06 10:27:22;;;;;;;6.10;3.70;;;33.80;68.40;;;;;;6164521;23;20415;-92
2022/08/06 10:29:54;;;;;;;3.93;3.63;;;33.80;67.60;;;;;;6166137;23;20198;-94
2022/08/06 10:32:30;;;;;;;4.00;3.60;;;33.80;68.90;;;;;;6140795;23;20387;-96
2022/08/06 10:34:57;;;;;;;4.20;3.80;;;33.80;68.00;;;;;;6131697;23;20483;-92
2022/08/06 10:37:24;;;;;;;4.57;4.10;;;33.80;67.80;;;;;;6129230;23;20384;-96
2022/08/06 10:39:56;;;;;;;4.00;3.60;;;33.90;67.00;;;;;;6129341;23;20425;-96
2022/08/06 10:42:23;;;;;;;4.10;3.50;;;34.00;65.30;;;;;;6127889;23;20432;-92
2022/08/06 10:44:50;;;;;;;3.30;3.00;;;34.10;65.70;;;;;;6128721;23;20445;-93
2022/08/06 10:47:17;;;;;;;4.60;4.20;;;34.00;67.90;;;;;;6136680;23;20405;-96
2022/08/06 10:49:43;;;;;;;3.97;3.60;;;34.00;67.60;;;;;;6153675;23;20804;-96
2022/08/06 10:52:11;;;;;;;4.07;3.73;;;33.80;68.30;;;;;;6128859;23;20444;-95
2022/08/06 10:54:39;;;;;;;4.03;3.73;;;33.90;66.90;;;;;;6154987;23;20417;-96
2022/08/06 10:57:06;;;;;;;3.67;3.40;;;34.00;67.70;;;;;;6127919;23;20547;-96
2022/08/06 10:59:32;;;;;;;7.40;3.77;;;34.00;67.80;;;;;;6131819;23;20424;-96
2022/08/06 11:02:08;;;;;;;6.57;4.33;;;34.00;68.20;;;;;;6154574;23;20383;-95
2022/08/06 11:05:01;;;;;;;3.73;3.43;;;34.10;66.40;;;;;;6136972;23;20420;-96
2022/08/06 11:07:44;;;;;;;3.63;3.33;;;34.10;66.50;;;;;;6132639;23;20402;-91
2022/08/06 11:10:34;;;;;;;3.80;3.50;;;34.00;67.80;;;;;;6131886;23;20437;-92
2022/08/06 11:13:13;;;;;;;4.30;3.90;;;34.00;67.90;;;;;;6133518;23;20429;-95
2022/08/06 11:15:42;;;;;;;5.77;3.70;;;33.90;68.50;;;;;;6134994;23;20467;-89
2022/08/06 11:18:10;;;;;;;4.90;4.13;;;33.90;68.40;;;;;;6169723;23;20450;-93
2022/08/06 11:20:58;;;;;;;5.70;3.70;;;34.00;67.50;;;;;;6141393;23;20421;-90
2022/08/06 11:23:26;;;;;;;6.00;4.13;;;34.10;67.30;;;;;;6129741;23;20734;-93
2022/08/06 11:25:55;;;;;;;4.00;3.70;;;34.20;66.10;;;;;;6129856;23;20419;-95
2022/08/06 11:28:33;;;;;;;3.83;3.43;;;34.20;67.60;;;;;;6130335;23;20784;-94
2022/08/06 11:31:01;;;;;;;4.10;3.80;;;34.30;67.70;;;;;;6131788;23;20455;-94
2022/08/06 11:33:33;;;;;;;7.20;3.93;;;34.30;67.10;;;;;;6131677;23;20483;-94
2022/08/06 11:36:12;;;;;;;4.70;3.70;;;34.30;67.40;;;;;;6133913;23;20670;-93
2022/08/06 11:38:50;;;;;;;4.73;4.43;;;34.10;68.00;;;;;;6139955;23;20424;-90
2022/08/06 11:41:21;;;;;;;4.60;4.30;;;34.20;67.00;;;;;;6137003;23;20413;-94
2022/08/06 11:43:53;;;;;;;4.73;4.33;;;34.10;67.80;;;;;;6133882;23;20684;-95
2022/08/06 11:46:26;;;;;;;4.73;4.33;;;34.30;66.10;;;;;;6134283;23;20440;-93
2022/08/06 11:49:04;;;;;;;4.40;4.00;;;34.40;65.60;;;;;;6133681;23;20456;-93
2022/08/06 11:51:44;;;;;;;6.90;4.23;;;34.50;66.50;;;;;;6135127;23;20456;-93
2022/08/06 11:54:33;;;;;;;4.47;4.07;;;34.50;67.10;;;;;;6130821;23;20397;-94
2022/08/06 11:57:04;;;;;;;4.80;4.30;;;34.50;67.10;;;;;;6154994;23;20392;-93
2022/08/06 11:59:37;;;;;;;4.43;4.03;;;34.50;67.00;;;;;;6130275;23;20421;-94
2022/08/06 12:02:05;;;;;;;4.77;4.37;;;34.40;66.60;;;;;;6139576;23;20424;-94
2022/08/06 12:04:38;;;;;;;9.87;4.83;;;34.30;66.50;;;;;;6132405;23;20420;-94
2022/08/06 12:07:20;;;;;;;3.97;3.67;;;34.30;67.40;;;;;;6131527;23;20796;-94
2022/08/06 12:09:59;;;;;;;6.07;4.67;;;34.20;67.50;;;;;;6133573;23;20455;-94
2022/08/06 12:12:24;;;;;;;4.60;4.20;;;34.10;67.80;;;;;;6133970;23;20388;-94
2022/08/06 12:14:51;;;;;;;5.00;4.30;;;34.10;67.00;;;;;;6133970;23;20409;-94
2022/08/06 12:17:22;;;;;;;8.10;4.87;;;34.10;66.70;;;;;;6136308;23;20163;-94
2022/08/06 12:19:50;;;;;;;4.37;3.97;;;34.10;66.50;;;;;;6137136;23;20443;-95
2022/08/06 12:22:20;;;;;;;4.83;4.43;;;34.20;66.20;;;;;;6143730;23;20470;-93
2022/08/06 12:24:50;;;;;;;4.63;4.23;;;34.20;66.10;;;;;;6158706;23;20393;-92
2022/08/06 12:27:17;;;;;;;8.23;5.17;;;34.30;65.70;;;;;;6132852;23;20440;-93
2022/08/06 12:29:44;;;;;;;4.70;4.30;;;34.40;65.30;;;;;;6133364;23;20455;-93
2022/08/06 12:32:22;;;;;;;4.43;4.13;;;34.50;65.50;;;;;;6158562;23;20365;-92
2022/08/06 12:34:49;;;;;;;4.63;4.03;;;34.50;65.30;;;;;;6158866;23;20437;-93
2022/08/06 12:37:16;;;;;;;4.47;4.17;;;34.60;64.90;;;;;;6131911;23;20385;-94
2022/08/06 12:42:28;;;;;;;5.70;4.10;;;34.80;65.30;;;;;;6139848;23;20385;-94
2022/08/06 12:44:54;;;;;;;5.00;4.60;;;34.80;65.10;;;;;;6147276;23;20405;-92
2022/08/06 12:47:21;;;;;;;6.77;4.40;;;34.90;65.30;;;;;;6162327;23;20396;-92
2022/08/06 12:49:46;;;;;;;5.00;4.60;;;34.90;65.10;;;;;;6132507;23;20545;-95
2022/08/06 12:52:13;;;;;;;4.90;4.40;;;35.00;65.30;;;;;;6132139;23;20385;-94
2022/08/06 12:54:39;;;;;;;4.70;4.30;;;35.00;65.00;;;;;;6160067;23;20355;-93
2022/08/06 12:57:05;;;;;;;4.80;4.40;;;35.00;64.80;;;;;;6159718;23;20741;-94
2022/08/06 12:59:31;;;;;;;7.63;4.47;;;35.10;64.80;;;;;;6135031;23;20187;-95
2022/08/06 13:01:58;;;;;;;4.93;4.20;;;35.10;65.00;;;;;;6158982;23;20409;-90
2022/08/06 13:04:25;;;;;;;4.47;4.07;;;35.20;65.00;;;;;;6134395;23;20409;-96
2022/08/06 13:06:51;;;;;;;5.17;4.57;;;35.20;65.00;;;;;;6158390;23;20425;-92
2022/08/06 13:09:26;;;;;;;6.40;5.20;;;35.30;65.00;;;;;;6133654;23;20480;-93
2022/08/06 13:11:52;;;;;;;3.93;3.63;;;35.30;66.30;;;;;;6136183;23;20480;-92